Terminal Aerodrome Forecast
Issued by NWS Cleveland, OH

Home | Current Version | Previous Version | Text Only | Print | Product List | Glossary On
Versions: 1 2 3 4 5 6 7 8 9 10 11 12 13 14 15 16 17 18 19 20 21 22 23 24 25 26 27
000
FTUS41 KCLE 260500
TAFYNG
TAF
KYNG 260527Z 2606/2706 04011KT 1 1/2SM -SN BR OVC020
      TEMPO 2606/2610 3/4SM -SN BR VV009
     FM261000 04010KT 2SM -SN BR OVC012
      TEMPO 2610/2614 1SM -SN BR OVC008
     FM261400 04012KT 3SM -SN BR OVC012
     FM262000 01010KT 5SM -SN OVC025
     FM270200 01006KT 3SM -SN OVC012=

USA.gov is the U.S. government's official web portal to all federal, state and local government web resources and services.